createdAt,value
2022-09-06T00:00:29.749Z,3.65
2022-09-06T00:02:58.121Z,4.63
2022-09-06T00:05:25.962Z,2.97
2022-09-06T00:07:53.767Z,4.55
2022-09-06T00:10:21.453Z,8.02
2022-09-06T00:12:49.105Z,4.78
2022-09-06T00:15:16.897Z,4.85
2022-09-06T00:17:47.136Z,5.60
2022-09-06T00:20:15.436Z,2.70
2022-09-06T00:22:43.073Z,4.03
2022-09-06T00:25:10.838Z,4.10
2022-09-06T00:27:38.394Z,4.32
2022-09-06T00:30:06.530Z,4.18
2022-09-06T00:32:34.236Z,3.77
2022-09-06T00:35:01.765Z,3.60
2022-09-06T00:37:29.377Z,2.60
2022-09-06T00:39:57.049Z,5.00
2022-09-06T00:42:24.664Z,1.50
2022-09-06T00:44:52.429Z,3.72
2022-09-06T00:47:20.173Z,6.35
2022-09-06T00:49:51.910Z,3.83
2022-09-06T00:52:20.385Z,2.85
2022-09-06T00:54:49.954Z,3.75
2022-09-06T00:57:18.421Z,4.45
2022-09-06T00:59:47.888Z,2.80
2022-09-06T01:02:15.821Z,3.80
2022-09-06T01:04:45.191Z,2.33
2022-09-06T01:07:51.570Z,3.63
2022-09-06T01:10:28.148Z,5.85
2022-09-06T01:13:41.683Z,1.95
2022-09-06T01:16:09.357Z,4.13
2022-09-06T01:19:01.298Z,3.63
2022-09-06T01:21:45.293Z,3.63
2022-09-06T01:24:25.680Z,3.30
2022-09-06T01:27:10.110Z,7.05
2022-09-06T01:30:05.894Z,2.83
2022-09-06T01:32:52.644Z,1.90
2022-09-06T01:35:35.443Z,2.25
2022-09-06T01:38:04.612Z,2.97
2022-09-06T01:40:36.441Z,4.38
2022-09-06T01:43:10.926Z,3.67
2022-09-06T01:46:03.263Z,5.45
2022-09-06T01:48:48.728Z,2.40
2022-09-06T01:51:24.611Z,8.52
2022-09-06T01:54:19.670Z,6.03
2022-09-06T01:56:56.243Z,4.13
2022-09-06T01:59:39.236Z,4.78
2022-09-06T02:02:17.334Z,6.50
2022-09-06T02:04:58.395Z,3.77
2022-09-06T02:07:29.000Z,2.58
2022-09-06T02:10:10.907Z,5.28
2022-09-06T02:12:41.789Z,5.72
2022-09-06T02:15:23.487Z,5.30
2022-09-06T02:18:04.686Z,4.72
2022-09-06T02:20:36.729Z,5.07
2022-09-06T02:23:06.935Z,2.85
2022-09-06T02:25:39.021Z,3.78
2022-09-06T02:28:08.236Z,7.55
2022-09-06T02:30:40.900Z,5.70
2022-09-06T02:33:13.851Z,4.20
2022-09-06T02:35:50.243Z,5.63
2022-09-06T02:38:20.997Z,3.83
2022-09-06T02:40:52.020Z,5.38
2022-09-06T02:43:20.110Z,7.07
2022-09-06T02:45:48.376Z,4.15
2022-09-06T02:48:16.134Z,5.20
2022-09-06T02:50:43.677Z,4.35
2022-09-06T02:53:13.965Z,4.93
2022-09-06T02:55:41.817Z,7.53
2022-09-06T02:58:12.202Z,4.10
2022-09-06T03:00:40.141Z,5.30
2022-09-06T03:03:08.157Z,4.18
2022-09-06T03:05:35.772Z,3.80
2022-09-06T03:08:03.568Z,4.70
2022-09-06T03:10:31.183Z,6.07
2022-09-06T03:12:58.792Z,5.28
2022-09-06T03:15:26.608Z,5.75
2022-09-06T03:17:58.729Z,5.57
2022-09-06T03:20:26.646Z,4.50
2022-09-06T03:22:54.274Z,6.07
2022-09-06T03:25:22.072Z,6.80
2022-09-06T03:27:49.803Z,6.05
2022-09-06T03:30:17.879Z,9.50
2022-09-06T03:32:45.501Z,8.90
2022-09-06T03:35:13.541Z,7.90
2022-09-06T03:37:41.080Z,12.05
2022-09-06T03:40:09.528Z,14.73
2022-09-06T03:42:37.300Z,11.98
2022-09-06T03:45:05.843Z,12.50
2022-09-06T03:47:33.597Z,15.63
2022-09-06T03:50:01.357Z,14.30
2022-09-06T03:52:28.954Z,12.48
2022-09-06T03:54:56.944Z,16.85
2022-09-06T03:57:24.598Z,17.73
2022-09-06T03:59:52.292Z,16.10
2022-09-06T04:02:20.018Z,17.42
2022-09-06T04:04:47.696Z,20.15
2022-09-06T04:07:15.318Z,24.60
2022-09-06T04:09:42.921Z,24.65
2022-09-06T04:12:10.598Z,22.40
2022-09-06T04:14:38.203Z,22.05
2022-09-06T04:17:06.107Z,24.92
2022-09-06T04:19:34.412Z,24.38
2022-09-06T04:22:02.008Z,23.75
2022-09-06T04:24:29.640Z,29.02
2022-09-06T04:26:57.320Z,24.50
2022-09-06T04:29:25.022Z,24.58
2022-09-06T04:31:52.627Z,23.02
2022-09-06T04:34:20.276Z,26.55
2022-09-06T04:36:48.578Z,24.42
2022-09-06T04:39:16.235Z,27.65
2022-09-06T04:41:44.053Z,30.13
2022-09-06T04:44:11.647Z,27.48
2022-09-06T04:46:42.231Z,29.08
2022-09-06T04:49:10.293Z,27.65
2022-09-06T04:51:39.583Z,36.10
2022-09-06T04:54:07.369Z,32.92
2022-09-06T04:56:35.086Z,33.60
2022-09-06T04:59:03.168Z,31.33
2022-09-06T05:01:30.923Z,34.10
2022-09-06T05:03:58.580Z,37.00
2022-09-06T05:06:26.432Z,36.75
2022-09-06T05:08:54.144Z,35.92
2022-09-06T05:11:22.717Z,36.78
2022-09-06T05:13:50.573Z,33.90
2022-09-06T05:16:18.341Z,39.22
2022-09-06T05:18:46.107Z,43.33
2022-09-06T05:21:14.281Z,40.50
2022-09-06T05:23:42.327Z,33.97
2022-09-06T05:26:09.930Z,45.00
2022-09-06T05:28:37.780Z,35.47
2022-09-06T05:31:27.066Z,38.50
2022-09-06T05:33:55.600Z,37.05
2022-09-06T05:36:24.332Z,39.97
2022-09-06T05:38:53.079Z,41.45
2022-09-06T05:41:21.253Z,41.22
2022-09-06T05:43:49.285Z,39.40
2022-09-06T05:46:17.837Z,44.03
2022-09-06T05:48:55.502Z,46.30
2022-09-06T05:51:23.230Z,46.80
2022-09-06T05:53:51.172Z,45.53
2022-09-06T05:56:19.312Z,46.50
2022-09-06T05:58:47.021Z,45.28
2022-09-06T06:01:19.311Z,44.70
2022-09-06T06:04:00.908Z,45.35
2022-09-06T06:06:31.606Z,40.53
2022-09-06T06:08:59.786Z,38.25
2022-09-06T06:11:28.358Z,44.17
2022-09-06T06:13:56.089Z,31.00
2022-09-06T06:16:23.904Z,36.15
2022-09-06T06:18:52.829Z,41.00
2022-09-06T06:23:54.918Z,31.23
2022-09-06T06:26:23.654Z,29.40
2022-09-06T06:31:22.419Z,28.95
2022-09-06T06:33:51.343Z,25.45
2022-09-06T06:36:22.120Z,29.15
2022-09-06T06:38:51.873Z,28.33
2022-09-06T06:41:21.387Z,32.28
2022-09-06T06:43:50.878Z,25.77
2022-09-06T06:46:19.545Z,26.98
2022-09-06T06:48:49.473Z,31.40
2022-09-06T06:51:21.489Z,28.40
2022-09-06T06:53:49.204Z,29.17
2022-09-06T06:56:22.765Z,27.75
2022-09-06T06:58:53.026Z,33.65
2022-09-06T07:01:22.478Z,29.45
2022-09-06T07:03:50.956Z,27.67
2022-09-06T07:06:19.675Z,30.38
2022-09-06T07:08:48.138Z,28.63
2022-09-06T07:11:19.491Z,28.42
2022-09-06T07:13:49.672Z,28.35
2022-09-06T07:16:24.010Z,35.70
2022-09-06T07:18:53.075Z,36.15
2022-09-06T07:24:09.558Z,28.98
2022-09-06T07:26:39.711Z,30.88
2022-09-06T07:29:08.716Z,27.10
2022-09-06T07:34:26.050Z,30.38
2022-09-06T07:36:55.044Z,32.58
2022-09-06T07:41:50.345Z,28.08
2022-09-06T07:44:18.060Z,24.58
2022-09-06T07:46:45.831Z,23.67
2022-09-06T07:49:13.687Z,21.23
2022-09-06T07:51:41.334Z,18.50
2022-09-06T07:56:57.887Z,14.73
2022-09-06T08:01:53.386Z,15.43
2022-09-06T08:04:21.068Z,14.40
2022-09-06T08:09:40.165Z,17.45
2022-09-06T08:12:08.560Z,16.42
2022-09-06T08:14:36.414Z,23.25
2022-09-06T08:17:04.381Z,17.33
2022-09-06T08:19:32.231Z,15.50
2022-09-06T08:21:59.904Z,19.83
2022-09-06T08:24:27.648Z,16.80
2022-09-06T08:26:55.323Z,17.95
2022-09-06T08:29:23.392Z,21.63
2022-09-06T08:31:51.132Z,19.25
2022-09-06T08:34:18.903Z,22.75
2022-09-06T08:36:46.530Z,17.45
2022-09-06T08:39:15.355Z,20.10
2022-09-06T08:42:01.110Z,22.90
2022-09-06T08:44:58.565Z,21.13
2022-09-06T08:47:26.723Z,16.73
2022-09-06T08:50:02.809Z,19.85
2022-09-06T08:53:13.302Z,16.90
2022-09-06T08:55:41.847Z,15.43
2022-09-06T08:58:28.253Z,13.45
2022-09-06T09:01:03.745Z,17.20
2022-09-06T09:03:37.010Z,10.88
2022-09-06T09:06:07.673Z,13.35
2022-09-06T09:09:07.900Z,12.45
2022-09-06T09:11:36.427Z,15.40
2022-09-06T09:14:29.878Z,13.45
2022-09-06T09:17:15.232Z,7.25
2022-09-06T09:19:43.228Z,8.23
2022-09-06T09:22:11.712Z,7.07
2022-09-06T09:24:39.649Z,9.80
2022-09-06T09:27:13.492Z,11.95
2022-09-06T09:32:44.802Z,6.50
2022-09-06T09:35:30.587Z,8.38
2022-09-06T09:38:14.049Z,10.40
2022-09-06T09:41:01.623Z,11.57
2022-09-06T09:44:04.431Z,7.32
2022-09-06T09:46:37.691Z,11.30
2022-09-06T09:49:25.068Z,10.82
2022-09-06T09:52:26.340Z,11.05
2022-09-06T09:55:06.084Z,12.02
2022-09-06T09:57:45.705Z,15.70
2022-09-06T10:00:14.192Z,9.07
2022-09-06T10:02:43.070Z,12.30
2022-09-06T10:07:56.105Z,10.82
2022-09-06T10:10:26.242Z,7.43
2022-09-06T10:13:24.406Z,8.43
2022-09-06T10:15:53.600Z,8.63
2022-09-06T10:18:21.527Z,11.70
2022-09-06T10:21:03.068Z,9.07
2022-09-06T10:26:59.277Z,11.15
2022-09-06T10:29:56.326Z,10.45
2022-09-06T10:32:48.096Z,9.05
2022-09-06T10:35:38.912Z,9.02
2022-09-06T10:38:32.558Z,11.63
2022-09-06T10:41:09.171Z,10.57
2022-09-06T10:44:21.213Z,12.25
2022-09-06T10:46:59.354Z,10.05
2022-09-06T10:49:28.763Z,11.73
2022-09-06T10:52:03.380Z,10.38
2022-09-06T10:54:35.470Z,9.18
2022-09-06T11:00:06.286Z,14.52
2022-09-06T11:05:58.461Z,12.82
2022-09-06T11:11:42.807Z,12.32
2022-09-06T11:14:13.814Z,10.80
2022-09-06T11:17:12.957Z,10.82
2022-09-06T11:19:49.257Z,16.23
2022-09-06T11:22:35.871Z,11.90
2022-09-06T11:25:48.006Z,9.43
2022-09-06T11:28:29.843Z,10.70
2022-09-06T11:30:58.799Z,10.13
2022-09-06T11:33:35.525Z,10.70
2022-09-06T11:36:26.302Z,16.23
2022-09-06T11:38:57.236Z,14.82
2022-09-06T11:41:31.588Z,12.38
2022-09-06T11:43:59.973Z,10.23
2022-09-06T11:46:33.686Z,13.57
2022-09-06T11:49:16.724Z,13.13
2022-09-06T11:51:45.745Z,13.10
2022-09-06T11:56:47.048Z,13.07
2022-09-06T11:59:20.344Z,13.13
2022-09-06T12:02:01.928Z,10.77
2022-09-06T12:05:07.228Z,10.10
2022-09-06T12:07:58.668Z,6.65
2022-09-06T12:10:45.412Z,11.80
2022-09-06T12:13:42.749Z,19.38
2022-09-06T12:16:12.006Z,9.30
2022-09-06T12:18:49.243Z,9.07
2022-09-06T12:21:40.969Z,9.55
2022-09-06T12:24:34.630Z,8.02
2022-09-06T12:27:32.093Z,9.18
2022-09-06T12:30:01.065Z,12.15
2022-09-06T12:38:01.190Z,9.63
2022-09-06T12:40:48.827Z,10.85
2022-09-06T12:43:19.070Z,13.35
2022-09-06T12:45:50.830Z,14.45
2022-09-06T12:48:59.177Z,13.05
2022-09-06T12:51:26.883Z,13.38
2022-09-06T12:54:00.192Z,15.68
2022-09-06T12:56:29.996Z,7.28
2022-09-06T12:59:22.216Z,16.60
2022-09-06T13:01:56.311Z,10.82
2022-09-06T13:04:35.943Z,10.32
2022-09-06T13:07:05.222Z,9.85
2022-09-06T13:09:34.081Z,7.32
2022-09-06T13:14:33.810Z,7.68
2022-09-06T13:17:03.155Z,7.95
2022-09-06T13:19:40.266Z,8.55
2022-09-06T13:22:11.267Z,7.05
2022-09-06T13:24:46.863Z,9.35
2022-09-06T13:27:36.334Z,10.82
2022-09-06T13:30:09.838Z,7.90
2022-09-06T13:32:48.589Z,9.50
2022-09-06T13:35:29.431Z,4.65
2022-09-06T13:38:19.731Z,10.05
2022-09-06T13:41:11.642Z,4.85
2022-09-06T13:43:45.289Z,7.93
2022-09-06T13:46:13.681Z,8.48
2022-09-06T13:48:43.169Z,8.48
2022-09-06T13:51:11.057Z,12.27
2022-09-06T13:53:38.978Z,11.65
2022-09-06T13:56:08.823Z,9.80
2022-09-06T13:58:37.131Z,10.43
2022-09-06T14:01:10.113Z,7.70
2022-09-06T14:03:42.109Z,9.50
2022-09-06T14:06:10.368Z,10.90
2022-09-06T14:09:05.344Z,12.20
2022-09-06T14:11:27.457Z,8.25
2022-09-06T14:13:55.137Z,8.05
2022-09-06T14:16:22.815Z,5.00
2022-09-06T14:18:52.005Z,4.95
2022-09-06T14:21:20.116Z,7.95
2022-09-06T14:23:52.375Z,9.33
2022-09-06T14:26:22.145Z,6.45
2022-09-06T14:28:50.071Z,7.10
2022-09-06T14:31:20.804Z,8.45
2022-09-06T14:33:49.205Z,8.25
2022-09-06T14:36:20.282Z,14.43
2022-09-06T14:38:48.520Z,10.52
2022-09-06T14:41:18.521Z,10.27
2022-09-06T14:43:52.338Z,6.20
2022-09-06T14:46:22.242Z,9.55
2022-09-06T14:48:57.699Z,5.85
2022-09-06T14:51:26.235Z,7.15
2022-09-06T14:53:59.842Z,9.48
2022-09-06T14:56:27.575Z,8.18
2022-09-06T14:58:57.398Z,6.60
2022-09-06T15:01:37.152Z,9.18
2022-09-06T15:04:08.185Z,7.93
2022-09-06T15:06:39.934Z,4.88
2022-09-06T15:09:08.179Z,6.97
2022-09-06T15:11:41.754Z,10.82
2022-09-06T15:14:15.393Z,8.95
2022-09-06T15:16:44.983Z,7.10
2022-09-06T15:19:13.748Z,6.75
2022-09-06T15:24:12.260Z,7.68
2022-09-06T15:26:41.701Z,2.58
2022-09-06T15:29:11.792Z,4.65
2022-09-06T15:31:40.247Z,7.15
2022-09-06T15:34:09.097Z,8.65
2022-09-06T15:36:38.468Z,13.27
2022-09-06T15:39:06.508Z,4.85
2022-09-06T15:41:36.973Z,6.73
2022-09-06T15:44:13.891Z,4.00
2022-09-06T15:46:59.917Z,7.18
2022-09-06T15:49:32.084Z,9.40
2022-09-06T15:52:02.987Z,5.20
2022-09-06T15:54:49.172Z,10.00
2022-09-06T15:57:17.559Z,6.82
2022-09-06T15:59:45.521Z,13.15
2022-09-06T16:02:14.101Z,8.13
2022-09-06T16:07:10.107Z,6.30
2022-09-06T16:09:37.892Z,8.88
2022-09-06T16:12:06.360Z,6.72
2022-09-06T16:14:35.008Z,8.38
2022-09-06T16:19:30.561Z,7.50
2022-09-06T16:21:59.084Z,7.65
2022-09-06T16:24:27.073Z,8.38
2022-09-06T16:26:54.798Z,7.60
2022-09-06T16:29:22.592Z,14.05
2022-09-06T16:31:50.768Z,12.02
2022-09-06T16:34:18.416Z,7.80
2022-09-06T16:36:46.144Z,17.63
2022-09-06T16:39:13.841Z,12.73
2022-09-06T16:41:44.424Z,9.07
2022-09-06T16:44:16.821Z,8.18
2022-09-06T16:46:46.835Z,7.95
2022-09-06T16:49:17.143Z,7.30
2022-09-06T16:51:45.872Z,11.07
2022-09-06T16:54:15.638Z,8.25
2022-09-06T16:56:43.346Z,8.80
2022-09-06T16:59:13.115Z,10.93
2022-09-06T17:01:42.257Z,5.60
2022-09-06T17:04:10.842Z,9.88
2022-09-06T17:06:44.773Z,10.10
2022-09-06T17:09:15.503Z,9.68
2022-09-06T17:11:43.236Z,7.10
2022-09-06T17:14:12.749Z,5.75
2022-09-06T17:16:59.430Z,7.20
2022-09-06T17:19:27.637Z,9.40
2022-09-06T17:21:55.391Z,5.53
2022-09-06T17:24:23.300Z,10.52
2022-09-06T17:26:50.954Z,5.28
2022-09-06T17:29:18.959Z,10.02
2022-09-06T17:31:48.224Z,6.72
2022-09-06T17:34:16.761Z,9.57
2022-09-06T17:36:44.675Z,10.27
2022-09-06T17:39:18.224Z,11.85
2022-09-06T17:41:51.096Z,11.70
2022-09-06T17:44:22.421Z,11.98
2022-09-06T17:49:40.139Z,9.10
2022-09-06T17:52:08.031Z,6.10
2022-09-06T17:54:36.389Z,7.63
2022-09-06T17:57:04.988Z,8.75
2022-09-06T17:59:35.806Z,10.38
2022-09-06T18:02:05.166Z,8.65
2022-09-06T18:04:33.758Z,12.82
2022-09-06T18:07:02.173Z,5.97
2022-09-06T18:09:30.759Z,13.73
2022-09-06T18:11:59.195Z,10.07
2022-09-06T18:14:28.888Z,7.28
2022-09-06T18:16:57.323Z,5.10
2022-09-06T18:19:26.964Z,5.25
2022-09-06T18:21:58.127Z,8.98
2022-09-06T18:24:26.202Z,15.82
2022-09-06T18:26:54.307Z,3.55
2022-09-06T18:29:22.773Z,9.20
2022-09-06T18:31:53.904Z,8.90
2022-09-06T18:34:22.302Z,6.45
2022-09-06T18:36:50.525Z,8.52
2022-09-06T18:39:19.292Z,7.35
2022-09-06T18:42:00.532Z,8.02
2022-09-06T18:44:32.960Z,18.67
2022-09-06T18:47:02.786Z,7.88
2022-09-06T18:49:31.273Z,5.00
2022-09-06T18:52:00.016Z,8.35
2022-09-06T18:54:28.447Z,7.82
2022-09-06T18:56:56.791Z,7.03
2022-09-06T18:59:28.126Z,9.02
2022-09-06T19:01:56.819Z,8.27
2022-09-06T19:04:25.416Z,7.55
2022-09-06T19:06:53.702Z,13.05
2022-09-06T19:09:21.953Z,6.32
2022-09-06T19:11:53.787Z,9.60
2022-09-06T19:14:22.171Z,9.68
2022-09-06T19:16:51.955Z,7.65
2022-09-06T19:19:22.027Z,9.23
2022-09-06T19:21:50.244Z,11.85
2022-09-06T19:24:18.159Z,9.90
2022-09-06T19:26:47.012Z,14.10
2022-09-06T19:29:17.476Z,10.13
2022-09-06T19:31:47.148Z,9.88
2022-09-06T19:34:15.948Z,14.82
2022-09-06T19:36:44.682Z,12.15
2022-09-06T19:39:15.650Z,8.73
2022-09-06T19:41:46.838Z,9.38
2022-09-06T19:44:17.831Z,14.23
2022-09-06T19:46:47.173Z,9.68
2022-09-06T19:49:17.241Z,11.68
2022-09-06T19:51:46.766Z,8.73
2022-09-06T19:54:15.742Z,9.10
2022-09-06T19:56:44.349Z,5.85
2022-09-06T19:59:13.320Z,7.10
2022-09-06T20:04:11.209Z,10.65
2022-09-06T20:06:39.431Z,17.42
2022-09-06T20:09:09.967Z,19.73
2022-09-06T20:11:39.092Z,11.98
2022-09-06T20:14:06.879Z,8.98
2022-09-06T20:16:39.366Z,9.00
2022-09-06T20:19:09.526Z,11.77
2022-09-06T20:21:37.112Z,10.10
2022-09-06T20:24:04.938Z,10.57
2022-09-06T20:26:33.113Z,15.43
2022-09-06T20:29:05.396Z,8.30
2022-09-06T20:31:34.543Z,8.73
2022-09-06T20:34:05.189Z,14.65
2022-09-06T20:36:32.893Z,12.57
2022-09-06T20:39:00.692Z,13.65
2022-09-06T20:41:29.362Z,11.93
2022-09-06T20:43:59.302Z,13.88
2022-09-06T20:46:30.121Z,7.40
2022-09-06T20:49:01.691Z,11.63
2022-09-06T20:51:29.387Z,13.63
2022-09-06T20:53:59.364Z,10.20
2022-09-06T20:56:31.147Z,14.05
2022-09-06T20:59:01.127Z,14.43
2022-09-06T21:01:35.228Z,15.35
2022-09-06T21:04:06.464Z,11.65
2022-09-06T21:06:36.179Z,11.57
2022-09-06T21:09:12.633Z,26.05
2022-09-06T21:11:41.385Z,13.98
2022-09-06T21:14:09.823Z,13.10
2022-09-06T21:16:39.406Z,8.52
2022-09-06T21:19:11.484Z,9.30
2022-09-06T21:21:42.237Z,17.27
2022-09-06T21:26:38.690Z,9.57
2022-09-06T21:29:06.474Z,9.23
2022-09-06T21:31:36.807Z,12.45
2022-09-06T21:34:06.962Z,12.38
2022-09-06T21:36:36.750Z,16.70
2022-09-06T21:39:15.266Z,18.85
2022-09-06T21:41:44.156Z,10.18
2022-09-06T21:44:12.376Z,12.55
2022-09-06T21:46:41.193Z,12.80
2022-09-06T21:49:11.207Z,13.18
2022-09-06T21:51:39.239Z,14.63
2022-09-06T21:54:07.790Z,11.32
2022-09-06T21:56:37.443Z,15.38
2022-09-06T21:59:06.987Z,16.90
2022-09-06T22:01:37.001Z,18.55
2022-09-06T22:04:06.155Z,15.02
2022-09-06T22:06:39.243Z,16.33
2022-09-06T22:09:11.125Z,20.38
2022-09-06T22:11:41.349Z,18.77
2022-09-06T22:14:11.605Z,16.92
2022-09-06T22:16:40.775Z,15.60
2022-09-06T22:19:09.761Z,14.02
2022-09-06T22:24:09.971Z,13.80
2022-09-06T22:26:39.042Z,12.32
2022-09-06T22:29:09.122Z,12.93
2022-09-06T22:31:36.987Z,13.15
2022-09-06T22:34:05.280Z,16.40
2022-09-06T22:36:33.777Z,17.48
2022-09-06T22:39:02.003Z,14.27
2022-09-06T22:41:31.848Z,14.60
2022-09-06T22:44:00.822Z,18.23
2022-09-06T22:48:56.180Z,16.02
2022-09-06T22:51:23.784Z,12.32
2022-09-06T22:53:51.485Z,13.77
2022-09-06T22:56:20.448Z,16.67
2022-09-06T22:58:49.296Z,10.95
2022-09-06T23:01:17.637Z,15.27
2022-09-06T23:03:46.013Z,10.25
2022-09-06T23:06:13.729Z,18.35
2022-09-06T23:08:41.948Z,12.38
2022-09-06T23:11:15.487Z,14.27
2022-09-06T23:13:44.095Z,12.68
2022-09-06T23:16:18.520Z,17.25
2022-09-06T23:18:47.219Z,19.50
2022-09-06T23:21:17.441Z,10.93
2022-09-06T23:23:46.225Z,15.73
2022-09-06T23:26:16.553Z,18.08
2022-09-06T23:28:44.955Z,15.10
2022-09-06T23:31:15.451Z,9.60
2022-09-06T23:33:44.929Z,19.95
2022-09-06T23:36:14.722Z,15.93
2022-09-06T23:38:43.072Z,13.80
2022-09-06T23:41:11.401Z,13.00
2022-09-06T23:43:40.666Z,12.80
2022-09-06T23:46:09.528Z,12.15
2022-09-06T23:51:05.375Z,15.75
2022-09-06T23:53:33.706Z,20.08
2022-09-06T23:56:01.578Z,18.80
2022-09-06T23:58:29.413Z,17.50
